sensor_id;sensor_type;location;lat;lon;timestamp;temperature;humidity
42227;DHT22;27892;52.378;13.122;2023-02-08T00:01:12;-1.10;57.20
42227;DHT22;27892;52.378;13.122;2023-02-08T00:03:38;-1.10;57.10
42227;DHT22;27892;52.378;13.122;2023-02-08T00:06:05;-1.20;57.20
42227;DHT22;27892;52.378;13.122;2023-02-08T00:08:32;-1.20;57.10
42227;DHT22;27892;52.378;13.122;2023-02-08T00:10:58;-1.20;57.40
42227;DHT22;27892;52.378;13.122;2023-02-08T00:13:24;-1.20;57.40
42227;DHT22;27892;52.378;13.122;2023-02-08T00:15:51;-1.20;57.40
42227;DHT22;27892;52.378;13.122;2023-02-08T00:18:17;-1.20;57.60
42227;DHT22;27892;52.378;13.122;2023-02-08T00:20:43;-1.20;57.50
42227;DHT22;27892;52.378;13.122;2023-02-08T00:23:10;-1.20;57.30
42227;DHT22;27892;52.378;13.122;2023-02-08T00:25:36;-1.20;57.20
42227;DHT22;27892;52.378;13.122;2023-02-08T00:28:03;-1.20;57.30
42227;DHT22;27892;52.378;13.122;2023-02-08T00:30:28;-1.30;57.00
42227;DHT22;27892;52.378;13.122;2023-02-08T00:32:54;-1.30;56.90
42227;DHT22;27892;52.378;13.122;2023-02-08T00:35:20;-1.40;57.60
42227;DHT22;27892;52.378;13.122;2023-02-08T00:37:45;-1.40;57.20
42227;DHT22;27892;52.378;13.122;2023-02-08T00:40:11;-1.40;57.20
42227;DHT22;27892;52.378;13.122;2023-02-08T00:42:37;-1.50;57.30
42227;DHT22;27892;52.378;13.122;2023-02-08T00:45:03;-1.50;57.20
42227;DHT22;27892;52.378;13.122;2023-02-08T00:47:29;-1.50;57.30
42227;DHT22;27892;52.378;13.122;2023-02-08T00:49:56;-1.50;57.20
42227;DHT22;27892;52.378;13.122;2023-02-08T00:52:21;-1.50;57.30
42227;DHT22;27892;52.378;13.122;2023-02-08T00:54:47;-1.60;57.40
42227;DHT22;27892;52.378;13.122;2023-02-08T00:57:13;-1.50;57.60
42227;DHT22;27892;52.378;13.122;2023-02-08T00:59:39;-1.50;57.50
42227;DHT22;27892;52.378;13.122;2023-02-08T01:02:06;-1.50;57.30
42227;DHT22;27892;52.378;13.122;2023-02-08T01:04:31;-1.60;57.10
42227;DHT22;27892;52.378;13.122;2023-02-08T01:06:57;-1.60;57.20
42227;DHT22;27892;52.378;13.122;2023-02-08T01:09:23;-1.60;57.50
42227;DHT22;27892;52.378;13.122;2023-02-08T01:11:49;-1.60;57.40
42227;DHT22;27892;52.378;13.122;2023-02-08T01:14:14;-1.60;57.40
42227;DHT22;27892;52.378;13.122;2023-02-08T01:16:40;-1.60;57.40
42227;DHT22;27892;52.378;13.122;2023-02-08T01:19:06;-1.60;57.10
42227;DHT22;27892;52.378;13.122;2023-02-08T01:21:34;-1.60;57.10
42227;DHT22;27892;52.378;13.122;2023-02-08T01:24:01;-1.70;57.00
42227;DHT22;27892;52.378;13.122;2023-02-08T01:26:27;-1.70;57.00
42227;DHT22;27892;52.378;13.122;2023-02-08T01:28:54;-1.80;57.00
42227;DHT22;27892;52.378;13.122;2023-02-08T01:31:22;-1.80;57.10
42227;DHT22;27892;52.378;13.122;2023-02-08T01:33:48;-1.80;57.10
42227;DHT22;27892;52.378;13.122;2023-02-08T01:36:14;-1.90;57.00
42227;DHT22;27892;52.378;13.122;2023-02-08T01:38:41;-1.90;57.00
42227;DHT22;27892;52.378;13.122;2023-02-08T01:41:14;-1.90;57.20
42227;DHT22;27892;52.378;13.122;2023-02-08T01:44:04;-1.90;57.30
42227;DHT22;27892;52.378;13.122;2023-02-08T01:46:31;-1.90;57.10
42227;DHT22;27892;52.378;13.122;2023-02-08T01:52:09;-2.00;56.90
42227;DHT22;27892;52.378;13.122;2023-02-08T01:54:42;-2.10;57.20
42227;DHT22;27892;52.378;13.122;2023-02-08T01:57:09;-2.00;57.40
42227;DHT22;27892;52.378;13.122;2023-02-08T02:02:09;-2.00;57.30
42227;DHT22;27892;52.378;13.122;2023-02-08T02:04:35;-2.00;57.10
42227;DHT22;27892;52.378;13.122;2023-02-08T02:07:03;-2.10;56.90
42227;DHT22;27892;52.378;13.122;2023-02-08T02:10:02;-2.00;57.10
42227;DHT22;27892;52.378;13.122;2023-02-08T02:12:30;-2.00;57.10
42227;DHT22;27892;52.378;13.122;2023-02-08T02:14:57;-2.00;57.00
42227;DHT22;27892;52.378;13.122;2023-02-08T02:17:24;-2.10;56.90
42227;DHT22;27892;52.378;13.122;2023-02-08T02:28:42;-2.10;57.10
42227;DHT22;27892;52.378;13.122;2023-02-08T02:36:46;-2.20;57.00
42227;DHT22;27892;52.378;13.122;2023-02-08T02:48:58;-2.40;57.40
42227;DHT22;27892;52.378;13.122;2023-02-08T02:51:47;-2.30;57.60
42227;DHT22;27892;52.378;13.122;2023-02-08T02:57:13;-2.30;57.30
42227;DHT22;27892;52.378;13.122;2023-02-08T02:59:39;-2.40;57.20
42227;DHT22;27892;52.378;13.122;2023-02-08T03:02:06;-2.40;57.40
42227;DHT22;27892;52.378;13.122;2023-02-08T03:13:15;-2.40;57.40
42227;DHT22;27892;52.378;13.122;2023-02-08T03:16:15;-2.40;57.40
42227;DHT22;27892;52.378;13.122;2023-02-08T03:19:06;-2.40;57.10
42227;DHT22;27892;52.378;13.122;2023-02-08T03:25:02;-2.40;57.20
42227;DHT22;27892;52.378;13.122;2023-02-08T03:27:33;-2.40;57.40
42227;DHT22;27892;52.378;13.122;2023-02-08T03:30:32;-2.40;57.20
42227;DHT22;27892;52.378;13.122;2023-02-08T03:33:19;-2.40;57.20
42227;DHT22;27892;52.378;13.122;2023-02-08T03:35:53;-2.40;57.10
42227;DHT22;27892;52.378;13.122;2023-02-08T03:38:30;-2.50;56.80
42227;DHT22;27892;52.378;13.122;2023-02-08T03:40:57;-2.40;57.10
42227;DHT22;27892;52.378;13.122;2023-02-08T03:43:39;-2.40;57.20
42227;DHT22;27892;52.378;13.122;2023-02-08T03:46:27;-2.40;57.10
42227;DHT22;27892;52.378;13.122;2023-02-08T03:49:11;-2.30;57.00
42227;DHT22;27892;52.378;13.122;2023-02-08T03:51:39;-2.40;56.90
42227;DHT22;27892;52.378;13.122;2023-02-08T03:54:07;-2.40;57.00
42227;DHT22;27892;52.378;13.122;2023-02-08T03:56:37;-2.40;56.90
42227;DHT22;27892;52.378;13.122;2023-02-08T03:59:10;-2.40;56.90
42227;DHT22;27892;52.378;13.122;2023-02-08T04:01:49;-2.30;57.00
42227;DHT22;27892;52.378;13.122;2023-02-08T04:04:17;-2.40;56.80
42227;DHT22;27892;52.378;13.122;2023-02-08T04:06:43;-2.40;56.70
42227;DHT22;27892;52.378;13.122;2023-02-08T04:09:10;-2.40;56.70
42227;DHT22;27892;52.378;13.122;2023-02-08T04:11:35;-2.40;56.70
42227;DHT22;27892;52.378;13.122;2023-02-08T04:14:01;-2.40;56.70
42227;DHT22;27892;52.378;13.122;2023-02-08T04:16:26;-2.40;56.80
42227;DHT22;27892;52.378;13.122;2023-02-08T04:18:52;-2.40;56.80
42227;DHT22;27892;52.378;13.122;2023-02-08T04:21:18;-2.40;56.70
42227;DHT22;27892;52.378;13.122;2023-02-08T04:23:43;-2.50;57.00
42227;DHT22;27892;52.378;13.122;2023-02-08T04:26:09;-2.50;56.70
42227;DHT22;27892;52.378;13.122;2023-02-08T04:28:35;-2.50;56.60
42227;DHT22;27892;52.378;13.122;2023-02-08T04:31:01;-2.60;56.50
42227;DHT22;27892;52.378;13.122;2023-02-08T04:33:26;-2.60;56.30
42227;DHT22;27892;52.378;13.122;2023-02-08T04:35:52;-2.70;56.40
42227;DHT22;27892;52.378;13.122;2023-02-08T04:38:18;-2.70;56.60
42227;DHT22;27892;52.378;13.122;2023-02-08T04:40:43;-2.70;56.70
42227;DHT22;27892;52.378;13.122;2023-02-08T04:43:09;-2.70;56.70
42227;DHT22;27892;52.378;13.122;2023-02-08T04:45:35;-2.70;56.80
42227;DHT22;27892;52.378;13.122;2023-02-08T04:48:00;-2.70;56.80
42227;DHT22;27892;52.378;13.122;2023-02-08T04:50:26;-2.70;56.90
42227;DHT22;27892;52.378;13.122;2023-02-08T04:52:52;-2.60;57.00
42227;DHT22;27892;52.378;13.122;2023-02-08T04:55:18;-2.60;57.10
42227;DHT22;27892;52.378;13.122;2023-02-08T04:57:44;-2.50;57.00
42227;DHT22;27892;52.378;13.122;2023-02-08T05:00:10;-2.50;57.40
42227;DHT22;27892;52.378;13.122;2023-02-08T05:02:36;-2.50;56.80
42227;DHT22;27892;52.378;13.122;2023-02-08T05:05:01;-2.50;56.80
42227;DHT22;27892;52.378;13.122;2023-02-08T05:07:27;-2.60;56.60
42227;DHT22;27892;52.378;13.122;2023-02-08T05:09:52;-2.60;56.50
42227;DHT22;27892;52.378;13.122;2023-02-08T05:12:18;-2.60;56.50
42227;DHT22;27892;52.378;13.122;2023-02-08T05:14:44;-2.60;56.40
42227;DHT22;27892;52.378;13.122;2023-02-08T05:17:09;-2.70;56.40
42227;DHT22;27892;52.378;13.122;2023-02-08T05:19:35;-2.70;56.60
42227;DHT22;27892;52.378;13.122;2023-02-08T05:22:01;-2.70;56.70
42227;DHT22;27892;52.378;13.122;2023-02-08T05:24:26;-2.60;56.70
42227;DHT22;27892;52.378;13.122;2023-02-08T05:26:52;-2.70;56.40
42227;DHT22;27892;52.378;13.122;2023-02-08T05:29:18;-2.70;56.40
42227;DHT22;27892;52.378;13.122;2023-02-08T05:31:43;-2.70;56.30
42227;DHT22;27892;52.378;13.122;2023-02-08T05:34:09;-2.70;56.40
42227;DHT22;27892;52.378;13.122;2023-02-08T05:36:34;-2.70;56.30
42227;DHT22;27892;52.378;13.122;2023-02-08T05:39:00;-2.70;56.40
42227;DHT22;27892;52.378;13.122;2023-02-08T05:41:26;-2.70;56.40
42227;DHT22;27892;52.378;13.122;2023-02-08T05:43:51;-2.70;56.30
42227;DHT22;27892;52.378;13.122;2023-02-08T05:46:17;-2.70;56.30
42227;DHT22;27892;52.378;13.122;2023-02-08T05:48:43;-2.70;56.20
42227;DHT22;27892;52.378;13.122;2023-02-08T05:51:08;-2.70;56.20
42227;DHT22;27892;52.378;13.122;2023-02-08T05:53:34;-2.70;56.20
42227;DHT22;27892;52.378;13.122;2023-02-08T05:56:01;-2.70;56.20
42227;DHT22;27892;52.378;13.122;2023-02-08T05:58:26;-2.80;56.00
42227;DHT22;27892;52.378;13.122;2023-02-08T06:00:52;-2.80;56.10
42227;DHT22;27892;52.378;13.122;2023-02-08T06:03:18;-2.80;56.30
42227;DHT22;27892;52.378;13.122;2023-02-08T06:05:44;-2.80;56.40
42227;DHT22;27892;52.378;13.122;2023-02-08T06:08:09;-2.80;56.50
42227;DHT22;27892;52.378;13.122;2023-02-08T06:10:35;-2.70;56.60
42227;DHT22;27892;52.378;13.122;2023-02-08T06:13:01;-2.70;56.70
42227;DHT22;27892;52.378;13.122;2023-02-08T06:15:27;-2.60;56.70
42227;DHT22;27892;52.378;13.122;2023-02-08T06:17:53;-2.70;56.50
42227;DHT22;27892;52.378;13.122;2023-02-08T06:20:19;-2.60;56.60
42227;DHT22;27892;52.378;13.122;2023-02-08T06:22:45;-2.60;56.40
42227;DHT22;27892;52.378;13.122;2023-02-08T06:25:10;-2.60;56.40
42227;DHT22;27892;52.378;13.122;2023-02-08T06:27:36;-2.60;56.40
42227;DHT22;27892;52.378;13.122;2023-02-08T06:30:02;-2.60;56.40
42227;DHT22;27892;52.378;13.122;2023-02-08T06:32:28;-2.60;56.40
42227;DHT22;27892;52.378;13.122;2023-02-08T06:34:54;-2.50;56.40
42227;DHT22;27892;52.378;13.122;2023-02-08T06:37:20;-2.50;57.00
42227;DHT22;27892;52.378;13.122;2023-02-08T06:39:45;-2.50;56.40
42227;DHT22;27892;52.378;13.122;2023-02-08T06:42:11;-2.50;56.40
42227;DHT22;27892;52.378;13.122;2023-02-08T06:44:37;-2.50;56.40
42227;DHT22;27892;52.378;13.122;2023-02-08T06:47:03;-2.50;56.50
42227;DHT22;27892;52.378;13.122;2023-02-08T06:49:28;-2.40;56.50
42227;DHT22;27892;52.378;13.122;2023-02-08T06:51:54;-2.50;56.20
42227;DHT22;27892;52.378;13.122;2023-02-08T06:54:20;-2.50;56.30
42227;DHT22;27892;52.378;13.122;2023-02-08T06:56:46;-2.50;56.00
42227;DHT22;27892;52.378;13.122;2023-02-08T06:59:11;-2.40;56.30
42227;DHT22;27892;52.378;13.122;2023-02-08T07:01:37;-2.40;56.30
42227;DHT22;27892;52.378;13.122;2023-02-08T07:04:03;-2.40;56.40
42227;DHT22;27892;52.378;13.122;2023-02-08T07:06:29;-2.30;56.50
42227;DHT22;27892;52.378;13.122;2023-02-08T07:08:55;-2.20;56.50
42227;DHT22;27892;52.378;13.122;2023-02-08T07:11:21;-2.10;56.50
42227;DHT22;27892;52.378;13.122;2023-02-08T07:13:49;-2.00;56.60
42227;DHT22;27892;52.378;13.122;2023-02-08T07:16:16;-2.00;56.50
42227;DHT22;27892;52.378;13.122;2023-02-08T07:18:41;-1.90;56.30
42227;DHT22;27892;52.378;13.122;2023-02-08T07:21:07;-1.80;56.50
42227;DHT22;27892;52.378;13.122;2023-02-08T07:23:33;-1.80;56.40
42227;DHT22;27892;52.378;13.122;2023-02-08T07:26:00;-1.70;56.40
42227;DHT22;27892;52.378;13.122;2023-02-08T07:28:26;-1.60;56.50
42227;DHT22;27892;52.378;13.122;2023-02-08T07:30:52;-1.50;56.50
42227;DHT22;27892;52.378;13.122;2023-02-08T07:33:19;-1.40;56.50
42227;DHT22;27892;52.378;13.122;2023-02-08T07:35:45;-1.30;56.60
42227;DHT22;27892;52.378;13.122;2023-02-08T07:38:10;-1.20;56.50
42227;DHT22;27892;52.378;13.122;2023-02-08T07:40:36;-1.10;56.60
42227;DHT22;27892;52.378;13.122;2023-02-08T07:43:01;-1.00;56.70
42227;DHT22;27892;52.378;13.122;2023-02-08T07:45:27;-0.90;57.30
42227;DHT22;27892;52.378;13.122;2023-02-08T07:47:53;-0.90;56.80
42227;DHT22;27892;52.378;13.122;2023-02-08T07:50:18;-0.80;57.00
42227;DHT22;27892;52.378;13.122;2023-02-08T07:52:44;-0.70;57.20
42227;DHT22;27892;52.378;13.122;2023-02-08T07:55:12;-0.50;57.50
42227;DHT22;27892;52.378;13.122;2023-02-08T07:57:42;-0.30;57.50
42227;DHT22;27892;52.378;13.122;2023-02-08T08:00:09;-0.20;57.40
42227;DHT22;27892;52.378;13.122;2023-02-08T08:02:35;0.00;57.40
42227;DHT22;27892;52.378;13.122;2023-02-08T08:05:00;0.10;57.20
42227;DHT22;27892;52.378;13.122;2023-02-08T08:07:26;0.20;57.90
42227;DHT22;27892;52.378;13.122;2023-02-08T08:09:51;0.40;57.40
42227;DHT22;27892;52.378;13.122;2023-02-08T08:12:17;0.50;56.90
42227;DHT22;27892;52.378;13.122;2023-02-08T08:14:43;0.60;57.00
42227;DHT22;27892;52.378;13.122;2023-02-08T08:17:08;0.60;56.70
42227;DHT22;27892;52.378;13.122;2023-02-08T08:19:34;0.60;56.80
42227;DHT22;27892;52.378;13.122;2023-02-08T08:22:00;0.70;56.90
42227;DHT22;27892;52.378;13.122;2023-02-08T08:24:25;0.70;56.90
42227;DHT22;27892;52.378;13.122;2023-02-08T08:26:51;0.60;56.70
42227;DHT22;27892;52.378;13.122;2023-02-08T08:29:17;0.80;57.30
42227;DHT22;27892;52.378;13.122;2023-02-08T08:31:43;0.90;57.00
42227;DHT22;27892;52.378;13.122;2023-02-08T08:34:09;1.00;57.20
42227;DHT22;27892;52.378;13.122;2023-02-08T08:36:35;0.90;56.90
42227;DHT22;27892;52.378;13.122;2023-02-08T08:39:00;0.80;56.80
42227;DHT22;27892;52.378;13.122;2023-02-08T08:41:26;1.00;57.40
42227;DHT22;27892;52.378;13.122;2023-02-08T08:43:53;1.50;58.20
42227;DHT22;27892;52.378;13.122;2023-02-08T08:46:19;3.00;57.50
42227;DHT22;27892;52.378;13.122;2023-02-08T08:48:45;5.70;56.20
42227;DHT22;27892;52.378;13.122;2023-02-08T08:51:11;7.70;48.90
42227;DHT22;27892;52.378;13.122;2023-02-08T08:53:38;9.30;44.30
42227;DHT22;27892;52.378;13.122;2023-02-08T08:56:05;10.40;42.10
42227;DHT22;27892;52.378;13.122;2023-02-08T08:58:31;11.30;39.40
42227;DHT22;27892;52.378;13.122;2023-02-08T09:00:57;11.90;34.80
42227;DHT22;27892;52.378;13.122;2023-02-08T09:03:23;12.20;34.30
42227;DHT22;27892;52.378;13.122;2023-02-08T09:05:49;12.20;34.00
42227;DHT22;27892;52.378;13.122;2023-02-08T09:08:15;12.60;34.70
42227;DHT22;27892;52.378;13.122;2023-02-08T09:10:41;11.90;32.30
42227;DHT22;27892;52.378;13.122;2023-02-08T09:13:07;11.90;32.20
42227;DHT22;27892;52.378;13.122;2023-02-08T09:15:41;11.50;32.90
42227;DHT22;27892;52.378;13.122;2023-02-08T09:18:07;11.40;33.60
42227;DHT22;27892;52.378;13.122;2023-02-08T09:20:32;11.30;32.70
42227;DHT22;27892;52.378;13.122;2023-02-08T09:22:58;10.60;34.60
42227;DHT22;27892;52.378;13.122;2023-02-08T09:25:24;10.70;35.10
42227;DHT22;27892;52.378;13.122;2023-02-08T09:27:50;10.20;35.70
42227;DHT22;27892;52.378;13.122;2023-02-08T09:30:27;9.30;35.40
42227;DHT22;27892;52.378;13.122;2023-02-08T09:32:53;8.20;36.80
42227;DHT22;27892;52.378;13.122;2023-02-08T09:35:19;7.10;39.00
42227;DHT22;27892;52.378;13.122;2023-02-08T09:37:44;6.20;40.70
42227;DHT22;27892;52.378;13.122;2023-02-08T09:40:24;5.40;42.40
42227;DHT22;27892;52.378;13.122;2023-02-08T09:46:07;4.00;46.00
42227;DHT22;27892;52.378;13.122;2023-02-08T09:48:38;4.10;46.80
42227;DHT22;27892;52.378;13.122;2023-02-08T09:51:10;4.10;46.60
42227;DHT22;27892;52.378;13.122;2023-02-08T09:53:42;4.00;47.00
42227;DHT22;27892;52.378;13.122;2023-02-08T09:56:13;4.00;47.00
42227;DHT22;27892;52.378;13.122;2023-02-08T09:58:45;3.90;47.50
42227;DHT22;27892;52.378;13.122;2023-02-08T10:01:33;4.00;47.50
42227;DHT22;27892;52.378;13.122;2023-02-08T10:04:08;3.90;48.40
42227;DHT22;27892;52.378;13.122;2023-02-08T10:06:36;4.00;47.80
42227;DHT22;27892;52.378;13.122;2023-02-08T10:09:06;3.60;48.40
42227;DHT22;27892;52.378;13.122;2023-02-08T10:20:17;5.40;45.60
42227;DHT22;27892;52.378;13.122;2023-02-08T10:26:07;4.90;45.80
42227;DHT22;27892;52.378;13.122;2023-02-08T10:28:57;4.40;47.20
42227;DHT22;27892;52.378;13.122;2023-02-08T10:32:00;4.80;47.20
42227;DHT22;27892;52.378;13.122;2023-02-08T10:37:18;6.30;45.50
42227;DHT22;27892;52.378;13.122;2023-02-08T10:39:45;6.60;44.40
42227;DHT22;27892;52.378;13.122;2023-02-08T10:42:20;7.10;43.80
42227;DHT22;27892;52.378;13.122;2023-02-08T10:47:21;7.20;41.00
42227;DHT22;27892;52.378;13.122;2023-02-08T10:49:58;7.30;41.20
42227;DHT22;27892;52.378;13.122;2023-02-08T10:52:26;7.30;39.70
42227;DHT22;27892;52.378;13.122;2023-02-08T10:54:52;7.80;40.70
42227;DHT22;27892;52.378;13.122;2023-02-08T10:57:24;7.90;40.30
42227;DHT22;27892;52.378;13.122;2023-02-08T11:00:01;8.70;40.00
42227;DHT22;27892;52.378;13.122;2023-02-08T11:02:37;8.50;37.80
42227;DHT22;27892;52.378;13.122;2023-02-08T11:05:13;8.40;39.90
42227;DHT22;27892;52.378;13.122;2023-02-08T11:07:39;9.30;39.80
42227;DHT22;27892;52.378;13.122;2023-02-08T11:12:39;10.60;36.90
42227;DHT22;27892;52.378;13.122;2023-02-08T11:15:20;10.80;35.50
42227;DHT22;27892;52.378;13.122;2023-02-08T11:17:53;10.50;33.30
42227;DHT22;27892;52.378;13.122;2023-02-08T11:20:22;10.30;34.20
42227;DHT22;27892;52.378;13.122;2023-02-08T11:22:50;9.30;36.10
42227;DHT22;27892;52.378;13.122;2023-02-08T11:25:34;8.70;37.40
42227;DHT22;27892;52.378;13.122;2023-02-08T11:28:01;8.80;37.50
42227;DHT22;27892;52.378;13.122;2023-02-08T11:30:27;8.70;37.40
42227;DHT22;27892;52.378;13.122;2023-02-08T11:33:29;8.50;37.70
42227;DHT22;27892;52.378;13.122;2023-02-08T11:36:00;9.50;38.90
42227;DHT22;27892;52.378;13.122;2023-02-08T11:38:27;9.80;37.70
42227;DHT22;27892;52.378;13.122;2023-02-08T11:40:59;10.50;36.50
42227;DHT22;27892;52.378;13.122;2023-02-08T11:43:32;11.40;35.20
42227;DHT22;27892;52.378;13.122;2023-02-08T11:46:00;11.70;33.50
42227;DHT22;27892;52.378;13.122;2023-02-08T11:48:39;11.40;32.40
42227;DHT22;27892;52.378;13.122;2023-02-08T11:51:13;10.50;33.90
42227;DHT22;27892;52.378;13.122;2023-02-08T11:53:47;10.20;34.30
42227;DHT22;27892;52.378;13.122;2023-02-08T11:56:21;9.90;37.00
42227;DHT22;27892;52.378;13.122;2023-02-08T12:01:42;9.90;36.40
42227;DHT22;27892;52.378;13.122;2023-02-08T12:04:13;11.10;35.70
42227;DHT22;27892;52.378;13.122;2023-02-08T12:12:49;13.80;32.50
42227;DHT22;27892;52.378;13.122;2023-02-08T12:18:21;13.30;31.20
42227;DHT22;27892;52.378;13.122;2023-02-08T12:21:11;14.40;30.20
42227;DHT22;27892;52.378;13.122;2023-02-08T12:23:55;14.20;30.10
42227;DHT22;27892;52.378;13.122;2023-02-08T12:29:55;13.10;29.60
42227;DHT22;27892;52.378;13.122;2023-02-08T12:35:17;12.40;31.20
42227;DHT22;27892;52.378;13.122;2023-02-08T12:37:44;12.10;32.30
42227;DHT22;27892;52.378;13.122;2023-02-08T12:40:44;12.00;32.10
42227;DHT22;27892;52.378;13.122;2023-02-08T12:54:44;8.70;37.90
42227;DHT22;27892;52.378;13.122;2023-02-08T12:57:16;8.50;38.40
42227;DHT22;27892;52.378;13.122;2023-02-08T13:00:15;8.60;38.30
42227;DHT22;27892;52.378;13.122;2023-02-08T13:05:16;8.20;39.40
42227;DHT22;27892;52.378;13.122;2023-02-08T13:07:45;8.00;39.50
42227;DHT22;27892;52.378;13.122;2023-02-08T13:10:26;7.40;39.40
42227;DHT22;27892;52.378;13.122;2023-02-08T13:12:58;7.00;40.70
42227;DHT22;27892;52.378;13.122;2023-02-08T13:15:38;7.10;41.10
42227;DHT22;27892;52.378;13.122;2023-02-08T13:18:19;7.30;40.80
42227;DHT22;27892;52.378;13.122;2023-02-08T13:23:23;7.00;41.40
42227;DHT22;27892;52.378;13.122;2023-02-08T13:28:55;6.90;42.10
42227;DHT22;27892;52.378;13.122;2023-02-08T13:33:50;6.70;42.20
42227;DHT22;27892;52.378;13.122;2023-02-08T13:36:26;6.70;42.10
42227;DHT22;27892;52.378;13.122;2023-02-08T13:38:54;6.80;42.30
42227;DHT22;27892;52.378;13.122;2023-02-08T13:41:25;6.80;42.30
42227;DHT22;27892;52.378;13.122;2023-02-08T13:43:58;6.50;42.60
42227;DHT22;27892;52.378;13.122;2023-02-08T13:46:27;6.60;43.70
42227;DHT22;27892;52.378;13.122;2023-02-08T13:48:55;7.30;44.40
42227;DHT22;27892;52.378;13.122;2023-02-08T13:59:35;8.40;41.40
42227;DHT22;27892;52.378;13.122;2023-02-08T14:04:44;9.80;40.60
42227;DHT22;27892;52.378;13.122;2023-02-08T14:12:40;10.50;36.10
42227;DHT22;27892;52.378;13.122;2023-02-08T14:15:29;11.00;35.70
42227;DHT22;27892;52.378;13.122;2023-02-08T14:17:56;11.40;35.30
42227;DHT22;27892;52.378;13.122;2023-02-08T14:20:31;11.40;33.90
42227;DHT22;27892;52.378;13.122;2023-02-08T14:23:01;10.60;33.40
42227;DHT22;27892;52.378;13.122;2023-02-08T14:25:45;9.80;35.10
42227;DHT22;27892;52.378;13.122;2023-02-08T14:28:25;9.30;36.00
42227;DHT22;27892;52.378;13.122;2023-02-08T14:30:54;8.80;36.70
42227;DHT22;27892;52.378;13.122;2023-02-08T14:33:25;8.30;37.60
42227;DHT22;27892;52.378;13.122;2023-02-08T14:36:02;7.90;38.40
42227;DHT22;27892;52.378;13.122;2023-02-08T14:38:50;7.60;39.50
42227;DHT22;27892;52.378;13.122;2023-02-08T14:41:47;7.10;40.50
42227;DHT22;27892;52.378;13.122;2023-02-08T14:50:38;6.30;42.40
42227;DHT22;27892;52.378;13.122;2023-02-08T14:52:50;6.20;42.60
42227;DHT22;27892;52.378;13.122;2023-02-08T14:55:22;6.10;42.80
42227;DHT22;27892;52.378;13.122;2023-02-08T14:57:55;5.90;43.10
42227;DHT22;27892;52.378;13.122;2023-02-08T15:00:49;5.90;43.40
42227;DHT22;27892;52.378;13.122;2023-02-08T15:03:17;6.00;43.30
42227;DHT22;27892;52.378;13.122;2023-02-08T15:06:23;5.90;43.40
42227;DHT22;27892;52.378;13.122;2023-02-08T15:08:53;5.70;43.70
42227;DHT22;27892;52.378;13.122;2023-02-08T15:11:24;5.70;43.80
42227;DHT22;27892;52.378;13.122;2023-02-08T15:13:54;5.80;43.90
42227;DHT22;27892;52.378;13.122;2023-02-08T15:16:20;5.70;43.90
42227;DHT22;27892;52.378;13.122;2023-02-08T15:18:48;5.80;43.90
42227;DHT22;27892;52.378;13.122;2023-02-08T15:21:21;5.70;44.00
42227;DHT22;27892;52.378;13.122;2023-02-08T15:24:16;5.60;44.10
42227;DHT22;27892;52.378;13.122;2023-02-08T15:27:00;5.50;44.80
42227;DHT22;27892;52.378;13.122;2023-02-08T15:29:27;5.30;44.70
42227;DHT22;27892;52.378;13.122;2023-02-08T15:31:54;5.30;45.00
42227;DHT22;27892;52.378;13.122;2023-02-08T15:34:23;5.10;45.00
42227;DHT22;27892;52.378;13.122;2023-02-08T15:36:54;5.20;45.00
42227;DHT22;27892;52.378;13.122;2023-02-08T15:39:41;5.20;44.90
42227;DHT22;27892;52.378;13.122;2023-02-08T15:42:21;5.20;44.90
42227;DHT22;27892;52.378;13.122;2023-02-08T15:44:47;4.90;45.40
42227;DHT22;27892;52.378;13.122;2023-02-08T15:47:32;5.00;45.20
42227;DHT22;27892;52.378;13.122;2023-02-08T15:49:59;5.00;45.20
42227;DHT22;27892;52.378;13.122;2023-02-08T15:52:29;4.90;45.30
42227;DHT22;27892;52.378;13.122;2023-02-08T15:54:56;4.80;45.50
42227;DHT22;27892;52.378;13.122;2023-02-08T15:57:33;4.70;45.60
42227;DHT22;27892;52.378;13.122;2023-02-08T16:00:01;4.60;45.60
42227;DHT22;27892;52.378;13.122;2023-02-08T16:02:33;4.60;46.40
42227;DHT22;27892;52.378;13.122;2023-02-08T16:05:00;4.60;45.80
42227;DHT22;27892;52.378;13.122;2023-02-08T16:07:38;4.60;45.70
42227;DHT22;27892;52.378;13.122;2023-02-08T16:10:07;4.60;45.80
42227;DHT22;27892;52.378;13.122;2023-02-08T16:12:33;4.40;46.00
42227;DHT22;27892;52.378;13.122;2023-02-08T16:14:59;4.40;46.20
42227;DHT22;27892;52.378;13.122;2023-02-08T16:17:41;4.40;46.40
42227;DHT22;27892;52.378;13.122;2023-02-08T16:20:31;4.30;46.30
42227;DHT22;27892;52.378;13.122;2023-02-08T16:28:00;4.10;46.50
42227;DHT22;27892;52.378;13.122;2023-02-08T16:30:26;4.00;46.80
42227;DHT22;27892;52.378;13.122;2023-02-08T16:47:49;3.80;47.60
42227;DHT22;27892;52.378;13.122;2023-02-08T16:50:18;3.80;47.80
42227;DHT22;27892;52.378;13.122;2023-02-08T16:52:47;3.70;48.00
42227;DHT22;27892;52.378;13.122;2023-02-08T16:55:16;3.70;48.00
42227;DHT22;27892;52.378;13.122;2023-02-08T16:57:44;3.60;48.20
42227;DHT22;27892;52.378;13.122;2023-02-08T17:00:26;3.60;48.30
42227;DHT22;27892;52.378;13.122;2023-02-08T17:02:52;3.60;48.30
42227;DHT22;27892;52.378;13.122;2023-02-08T17:05:21;3.50;48.50
42227;DHT22;27892;52.378;13.122;2023-02-08T17:07:47;3.50;48.60
42227;DHT22;27892;52.378;13.122;2023-02-08T17:10:19;3.50;48.60
42227;DHT22;27892;52.378;13.122;2023-02-08T17:12:45;3.40;48.60
42227;DHT22;27892;52.378;13.122;2023-02-08T17:15:11;3.30;48.80
42227;DHT22;27892;52.378;13.122;2023-02-08T17:17:37;3.30;48.80
42227;DHT22;27892;52.378;13.122;2023-02-08T17:20:03;3.30;49.10
42227;DHT22;27892;52.378;13.122;2023-02-08T17:22:29;3.30;49.20
42227;DHT22;27892;52.378;13.122;2023-02-08T17:24:54;3.30;49.30
42227;DHT22;27892;52.378;13.122;2023-02-08T17:27:20;3.20;49.50
42227;DHT22;27892;52.378;13.122;2023-02-08T17:29:47;3.20;49.70
42227;DHT22;27892;52.378;13.122;2023-02-08T17:32:12;3.10;49.90
42227;DHT22;27892;52.378;13.122;2023-02-08T17:34:38;3.10;49.90
42227;DHT22;27892;52.378;13.122;2023-02-08T17:37:05;3.10;49.90
42227;DHT22;27892;52.378;13.122;2023-02-08T17:39:31;3.10;49.90
42227;DHT22;27892;52.378;13.122;2023-02-08T17:41:56;3.10;50.40
42227;DHT22;27892;52.378;13.122;2023-02-08T17:44:23;3.10;49.90
42227;DHT22;27892;52.378;13.122;2023-02-08T17:46:48;3.10;49.80
42227;DHT22;27892;52.378;13.122;2023-02-08T17:49:14;3.10;49.80
42227;DHT22;27892;52.378;13.122;2023-02-08T17:51:40;3.10;49.80
42227;DHT22;27892;52.378;13.122;2023-02-08T17:54:06;3.00;50.00
42227;DHT22;27892;52.378;13.122;2023-02-08T17:56:32;3.00;50.10
42227;DHT22;27892;52.378;13.122;2023-02-08T17:59:01;2.90;50.20
42227;DHT22;27892;52.378;13.122;2023-02-08T18:01:30;3.00;50.20
42227;DHT22;27892;52.378;13.122;2023-02-08T18:03:58;2.90;50.20
42227;DHT22;27892;52.378;13.122;2023-02-08T18:06:24;2.90;50.40
42227;DHT22;27892;52.378;13.122;2023-02-08T18:08:53;2.90;50.50